createdAt,value
2022-09-09T00:04:16.764Z,57.3
2022-09-09T00:09:54.829Z,57.3
2022-09-09T00:15:31.078Z,57.2
2022-09-09T04:58:41.298Z,54.5
2022-09-09T05:04:19.669Z,54.4
2022-09-09T05:09:41.430Z,54.4
2022-09-09T05:15:21.655Z,54.4
2022-09-09T05:21:05.992Z,54.3
2022-09-09T05:26:27.518Z,54.3
2022-09-09T05:31:35.060Z,54.3
2022-09-09T05:37:15.527Z,54.2
2022-09-09T05:42:56.685Z,54.2
2022-09-09T05:48:34.993Z,54.1
2022-09-09T05:54:13.055Z,54.1
2022-09-09T05:59:35.095Z,54
2022-09-09T06:05:17.119Z,53.9
2022-09-09T06:10:55.741Z,53.9
2022-09-09T06:16:33.191Z,53.9
2022-09-09T06:22:10.339Z,53.8
2022-09-09T06:27:48.502Z,53.8
2022-09-09T06:33:27.009Z,53.8
2022-09-09T06:39:04.442Z,53.6
2022-09-09T06:44:42.769Z,52.6
2022-09-09T06:50:21.481Z,52.4
2022-09-09T06:56:01.103Z,52.3
2022-09-09T07:12:20.179Z,51.8
2022-09-09T07:18:02.415Z,51.6
2022-09-09T07:23:39.419Z,51.6
2022-09-09T07:29:20.725Z,51.6
2022-09-09T07:35:03.904Z,51.6
2022-09-09T07:40:46.286Z,51.8
2022-09-09T07:46:25.020Z,51.9
2022-09-09T07:51:50.265Z,51.8
2022-09-09T07:57:29.918Z,52.3
2022-09-09T08:08:33.117Z,52.9
2022-09-09T08:14:42.868Z,53.1
2022-09-09T08:20:20.049Z,53.3
2022-09-09T08:25:42.707Z,53.3
2022-09-09T08:31:20.595Z,53.6
2022-09-09T08:37:04.987Z,53.7
2022-09-09T08:42:46.683Z,53.7
2022-09-09T08:53:52.356Z,53.8
2022-09-09T08:59:24.071Z,54.1
2022-09-09T09:04:51.244Z,54.4
2022-09-09T13:33:53.346Z,52.6
2022-09-09T13:39:34.039Z,52.6
2022-09-09T13:45:12.057Z,52.5
2022-09-09T13:50:52.629Z,52.4
2022-09-09T14:02:22.484Z,52.3
2022-09-09T14:08:00.400Z,52.3
2022-09-09T14:13:38.772Z,52.3
2022-09-09T14:19:16.400Z,52.2
2022-09-09T14:24:59.855Z,52.1
2022-09-09T14:30:52.089Z,52.1
2022-09-09T14:36:13.951Z,52.1
2022-09-09T14:41:52.079Z,52
2022-09-09T14:47:14.885Z,52
2022-09-09T14:58:15.715Z,51.9
2022-09-09T15:03:55.316Z,51.8
2022-09-09T15:09:32.821Z,51.8
2022-09-09T15:15:13.479Z,51.8
2022-09-09T15:20:56.654Z,51.7
2022-09-09T15:26:33.885Z,51.6
2022-09-09T15:32:12.609Z,51.6
2022-09-09T15:37:50.534Z,51.5
2022-09-09T15:43:28.776Z,51.5
2022-09-09T15:49:11.243Z,51.4
2022-09-09T15:55:12.605Z,51.4
2022-09-09T16:00:50.217Z,51.4
2022-09-09T16:06:33.867Z,51.3
2022-09-09T16:12:17.231Z,51.3
2022-09-09T16:17:53.803Z,51.2
2022-09-09T16:23:31.450Z,51.1
2022-09-09T16:29:13.015Z,51.1
2022-09-09T16:34:55.706Z,51.1
2022-09-09T16:40:32.845Z,51
2022-09-09T16:46:11.372Z,51
2022-09-09T16:51:49.012Z,50.9
2022-09-09T16:57:26.683Z,50.9
2022-09-09T17:03:05.586Z,50.8
2022-09-09T17:08:49.060Z,50.8
2022-09-09T17:14:11.184Z,50.7
2022-09-09T17:20:06.960Z,50.7
2022-09-09T17:26:14.146Z,50.6
2022-09-09T17:36:58.661Z,50.5
2022-09-09T17:53:25.805Z,50.4
2022-09-09T17:59:03.422Z,50.4
2022-09-09T18:04:42.543Z,50.3
2022-09-09T18:10:20.661Z,50.3
2022-09-09T18:16:12.358Z,50.3
2022-09-09T18:21:34.228Z,50.2
2022-09-09T18:27:12.613Z,50.1
2022-09-09T18:32:53.170Z,50.1
2022-09-09T18:38:34.116Z,50.1
2022-09-09T18:44:12.722Z,50
2022-09-09T18:49:49.626Z,49.9
2022-09-09T18:55:12.077Z,49.9
2022-09-09T19:00:50.135Z,49.9
2022-09-09T19:06:27.590Z,49.8
2022-09-09T19:11:55.950Z,49.6
2022-09-09T19:17:34.856Z,49.5
2022-09-09T19:22:56.265Z,49.4
2022-09-09T19:34:48.338Z,49.1
2022-09-09T19:40:10.856Z,48.9
2022-09-09T19:45:33.214Z,48.9
2022-09-09T19:50:55.949Z,48.8
2022-09-09T19:56:35.015Z,48.8
2022-09-09T20:02:13.737Z,48.6
2022-09-09T20:08:14.117Z,48.6
2022-09-09T20:13:50.895Z,48.5
2022-09-09T20:19:28.821Z,48.4
2022-09-09T20:25:11.636Z,48.4
2022-09-09T20:30:38.225Z,48.3
2022-09-09T20:36:15.977Z,48.3
2022-09-09T20:41:56.040Z,48.3
2022-09-09T20:47:33.243Z,48.2
2022-09-09T20:53:16.349Z,48.2
2022-09-09T20:58:54.179Z,48.1
2022-09-09T21:04:31.431Z,48.1
2022-09-09T21:10:12.702Z,48.1
2022-09-09T21:15:51.158Z,48.1
2022-09-09T21:21:12.409Z,48
2022-09-09T21:26:49.969Z,48
2022-09-09T21:32:37.211Z,47.9
2022-09-09T21:38:19.411Z,47.9
2022-09-09T21:43:57.156Z,47.9
2022-09-09T21:49:34.388Z,47.8
2022-09-09T21:55:01.547Z,47.8
2022-09-09T22:06:03.229Z,47.8
2022-09-09T22:17:01.464Z,47.7
2022-09-09T22:22:39.341Z,47.7
2022-09-09T22:28:01.036Z,47.6
2022-09-09T22:33:22.980Z,47.6
2022-09-09T22:39:01.131Z,47.6
2022-09-09T22:49:28.669Z,47.5
2022-09-09T22:54:56.304Z,47.5
2022-09-09T23:00:34.274Z,47.4
2022-09-09T23:06:11.636Z,47.4
2022-09-09T23:11:34.451Z,47.4
2022-09-09T23:22:33.099Z,47.3
2022-09-09T23:28:11.225Z,47.3
2022-09-09T23:33:33.518Z,47.3
2022-09-09T23:38:24.402Z,47.3
2022-09-09T23:43:31.820Z,47.2
2022-09-09T23:48:38.175Z,47.2
2022-09-09T23:54:00.267Z,47.2
